Disclaimer   
PNR Super Search
 ♦ 
×
HashTag:
PNR Number:
Train Type:
Train:
From Station:
To Station:
Train Class:
2SSLCCEx3AFC2A1A3E
WL Quota:
DOJ From:
DOJ To:
Blogger:
Traveller:
Predictor:
Prediction:
WLRACConf
Stamper:
Final:
WLRACConfVoidQ-ConfUnStamped
Status:
Reaction:

Search
  Go  
 
Fri Mar 27, 2015 12:27:26 ISTHomeTrainsΣChainsAtlasPNRForumGalleryNewsFAQTripsMembersLoginFeedback
Fri Mar 27, 2015 12:27:26 IST
Post PNRPNR StatusModify Search

Ticket PNR Status Inquiry - PNR: 810-xxxxxxx (E-Ticket)

OLD STATUS

Status Last Updated on: May 21 2012 (7:50PM) IST

Date of Journey: Tue May 22, 2012   Class: Sleeper - SL   (Total Seats available for this Class/Quota: Avbl >183)
Passenger 1: SX1,33/Coach Position:11 (Booking Status: W/L 43,GNWL)
Passenger 2: SX1,36/Coach Position:11 (Booking Status: W/L 44,GNWL)
Passenger 3: SX1,34/Coach Position:11 (Booking Status: W/L 45,GNWL)
Passenger 4: SX1,35/Coach Position:11 (Booking Status: W/L 46,GNWL)
Passenger 5: SX1,37/Coach Position:11 (Booking Status: W/L 47,GNWL)
Passenger 6: SX1,38/Coach Position:11 (Booking Status: W/L 48,GNWL)
Chart PREPARED

Mumbai Bandra Terminus- Dehradun Express/19019

Travel Time: 34h 46m    85 halts    Distance: 1408 km    Avg Speed: 40 km/hr
Peak Observed Speed: n/a
Type: Mail/Express
Zone: WR/Western
Departs @ 04:04 (Avg 9m late)
Platform# 1
SMTWTFS
NVS/Navsari 
Arrives @ 14:50 +1 night (Avg 40m late)
Platform# 1
SMTWTFS
HW/Haridwar Junction 

85 halts. 215 intermediate Stations between Navsari and Haridwar Junction

Show ALL intermediate Stations  Show Old Time-Table

#TrkCodeStation NameX/OArrivesAvgDepartsAvgHaltPFDay#KmSpeedElevZoneAddress
1/==/BDTSMumbai Bandra Terminus  -00:05+011-222.6374mWRMumbai 400050, Maharashtra
2/==/BVIMumbai BorivaliO  00:35+700:40+75m61-203.85019mWRMumbai - 400092, Maharashtra
3/==/BSRVasai Road  01:01+301:03+52m31-186.4747mWRVasai 401202, Maharashtra
4/==/PLGPalgharX  01:35+1501:37+182m11-146.85219mWRPalghar, Maharashtra
5/==/DRDDahanu RoadX  02:15+1002:17+112m11-113.99112mWRDahanu, Maharashtra
6/==/VAPIVapiX  02:49+1402:51+142m11-65.35427mWRVapi, Gujarat
7/==/BLValsadX  03:20+703:25+115m11-39.15715mWRValsad, Gujarat
8/==/BIMBilimora JunctionX  03:44+703:46+72m11-21.27911mWRBilimora, Gujarat
9/==/NVSNavsari»X  04:02+904:04+92m110.04914mWRNavsari, Gujarat
10/==/STSuratX  04:40+204:45+35m1129.67219mWRSurat 395001, Gujarat
11/==/KSBKosamba Junction05:11+1005:13+102m--161.013930mWRKosamba, Gujarat
12/==/AKVAnkleshwar JunctionX  05:21+1805:23+182m1179.64319mWRAnkleshwar, Gujarat
13/==/BHBharuch JunctionX  05:36+1805:38+182m3188.98719mWRBharuch, Gujarat
14/==/MYGMiyagam Karjan  06:06+2106:08+212m21129.65629mWRKarjan, Gujarat
15/==/BRCVadodara JunctionXO  06:40+2406:50+2510m21159.46736mWRVadodara 390005, Gujarat
16/==/SMLASamlaya Junction  07:14+3407:16+342m21186.06767mWRVadodara, Gujarat
17/==/CPNChampaner Road Junction  07:26+3407:28+342m21197.25478mWRPanchmahal, Gujarat
18/==/DRLDerolX  07:42+3207:44+322m21209.77681mWRKalol, Gujarat
19/==/KRSAKharsaliyaX  07:54+3907:56+392m21222.427107mWRPanchmahal, Gujarat
20/==/GDAGodhra Junction  08:20+2008:25+205m21233.358122mWRGodhra, Gujarat
21/==/SATSant Road  08:46+2708:47+271m21253.765169mWROrwara, Gujarat
22/==/PPDPiplod Junction  08:58+2808:59+291m21265.568209mWRPiplod, Gujarat
23/==/LMKLimkhedaXO  09:06+3309:08+362m21273.525205mWRLimkheda, Gujarat
24/==/MAMMangal MahudiX  09:29+2609:30+261m21282.197248mWRDabhada, Gujarat
25/==/DHDDahodXO  09:45+3309:50+335m21306.445313mWRDahod, Gujarat
26/==/BIOBordi  10:04+3010:05+301m--1317.068289mWRNational Highway 59, Gujarat
27/==/ANASAnasX  10:12+3110:13+311m--1324.973288mWRMadhya Pradesh 389154 ?, Madhya Pradesh
28/==/MGNMeghnagar  10:25+3210:27+332m--1339.560317mWRJhabua, Madhya Pradesh
29/==/THDRThandla Road  10:35+3310:36+331m--1347.564317mWRJhabua, Madhya Pradesh
30/==/PCNPanch Pipila  10:49+3310:50+331m--1361.452369mWRSH 39A, Madhya Pradesh
31/==/AGRAmargarh  11:01+3211:02+331m--1370.950410mWRSH 39A, Madhya Pradesh
32/==/BMIBamnia  11:07+3311:09+332m--1375.045392mWRBamnia, Madhya Pradesh
33/==/BOGBhairongarh  11:17+3211:18+321m--1381.065374mWRBhairongarh Railway Station, Madhya Pradesh
34/==/RTIRaotiX  11:29+3411:30+351m--1392.954409mWRState Highway 39A, Madhya Pradesh
35/==/BILDBildiX  11:38+3511:39+351m--1400.060422mWRMadhya Pradesh, Madhya Pradesh
36/==/MRNMorwaniX  11:48+3611:49+361m--1409.121459mWRDantoda, Madhya Pradesh
37/==/RTMRatlam JunctionX  12:20+3012:40+3020m51419.849495mWRRatlam 457001, Madhya Pradesh
38/==/BODBangrod  12:52+3412:53+341m--1429.655484mWRRatlam, Madhya Pradesh
39/==/RNHRunkhera  13:01+3313:02+351m--1437.057478mWRUjjain, Madhya Pradesh
40/==/KUHKhachrodX  13:13+3413:15+352m--1447.514497mWRUjjain, Madhya Pradesh
41/==/NADNagda Junction  14:15-214:25+410m11461.257468mWRNagda, Madhya Pradesh
42/==/MEPMahidpur RoadX  14:43+914:45+102m--1478.380493mWCRGogapur, Madhya Pradesh
43/==/LNRLuni RichhaX  14:53+1214:55+112m--1488.961471mWCRAlote, Madhya Pradesh
44/==/VMAVikramgarh Alot  15:08+915:10+102m21502.251443mWCRKota Division, Madhya Pradesh
45/==/THURThuria  15:19+915:21+102m--1509.871430mWCRMDR 45, Madhya Pradesh
46/==/CMUChau MahlaX  15:33+1015:35+132m21524.066426mWCRJhalawar, Rajasthan
47/==/SVASuwasraX  15:49+1515:50+161m--1539.462450mWCRSuwasra, Madhya Pradesh
48/==/SGZShamgarhX  16:03+1616:08+165m--1552.859463mWCRMandsaur, Madhya Pradesh
49/==/GOHGarothX  16:19+1516:20+171m21563.772441mWCRMadhya Pradesh 458880, Madhya Pradesh
50/==/BWMBhawani MandiX  16:39+1816:41+202m--1586.358384mWCRBhawani Mandi, Madhya Pradesh
51/==/JHWJhalawar Road  16:58+1817:00+192m--1602.857361mWCRJhalawar City, Rajasthan
52/==/RMARamganj Mandi JunctionXO  17:13+1717:15+222m--1615.242358mWCRRamganj Mandi, Rajasthan
53/==/MKXMorak  17:28+1917:30+202m--1624.268337mWCRMorak, Rajasthan
54/==/DARADaraX  17:43+2217:45+232m--1639.060354mWCRDara, Rajasthan
55/==/DKNTDakaniya TalavO  18:23+2218:25+242m11677.114278mWCRKota, Rajasthan
56/==/KOTAKota JunctionX  19:05+319:35+2430m11686.436256mWCRKota, Rajasthan
57|--|GQLGurla  19:44+2919:46+292m--1691.853251mWCRSH 33, Rajasthan
58/==/KPTNKeshorai PatanXO  19:55+2819:57+282m--1699.886243mWCRSH 33, Rajasthan
59/==/LKELakheriX  20:30+3720:32+402m--1746.951228mWCRBundi, Rajasthan
60/==/IDGIndargarh Sumerganj MandiXO  20:45+3920:47+412m--1757.953247mWCRIndargarh, Rajasthan
61/==/SWMSawai Madhopur Junction  21:28+3321:30+362m--1794.179266mWCRSawai Madhopur, Rajasthan
62/==/MLZMalarnaO  21:53+3721:55+372m--1824.345236mWCRSawai Madhopur, Rajasthan
63/==/GGCGangapur City  22:40+2922:45+325m21858.089270mWCRGangapur, Rajasthan
64/==/SMBJShri Mahabirji  23:08+3523:10+362m--1892.147240mWCRKarauli, Rajasthan
65/==/HANHindaun CityO  23:23+3323:25+342m--1902.344230mWCRKarauli, Rajasthan
66/==/BXNBayana JunctionXO  00:10+2700:15+275m--2935.257198mWCRBayana, Rajasthan
67/==/BTEBharatpur JunctionX  00:59+1701:00+331m--2977.225174mWCRBharatpur, Rajasthan
68/==/MTJMathura Junction  02:20+1102:25+155m321010.775179mNCRMathura, Uttar Pradesh
69/==/KSVKosi Kalan  02:58+2103:00+212m121052.148189mNCRKosi Kalan, Uttar Pradesh